createdAt,value
2023-05-14T00:13:14.910Z,9.75
2023-05-14T00:18:14.937Z,9.77
2023-05-14T00:28:14.903Z,9.79
2023-05-14T00:38:14.899Z,9.78
2023-05-14T00:53:14.887Z,9.79
2023-05-14T01:03:14.965Z,9.78
2023-05-14T01:08:14.887Z,9.77
2023-05-14T01:13:14.872Z,9.78
2023-05-14T01:28:14.848Z,9.77
2023-05-14T02:43:14.752Z,9.77
2023-05-14T02:48:14.787Z,9.77
2023-05-14T02:53:14.776Z,9.77
2023-05-14T02:58:14.759Z,9.77
2023-05-14T03:03:14.777Z,9.77
2023-05-14T03:08:14.759Z,9.71
2023-05-14T03:13:14.748Z,9.69
2023-05-14T03:18:14.759Z,9.66
2023-05-14T03:23:14.738Z,9.58
2023-05-14T03:28:14.736Z,9.54
2023-05-14T03:33:14.739Z,9.55
2023-05-14T03:38:14.751Z,9.53
2023-05-14T03:43:14.711Z,9.56
2023-05-14T03:48:14.753Z,9.6
2023-05-14T03:53:14.753Z,9.64
2023-05-14T03:58:14.736Z,9.58
2023-05-14T04:03:14.743Z,9.53
2023-05-14T04:08:14.694Z,9.58
2023-05-14T04:13:14.684Z,9.51
2023-05-14T04:18:14.702Z,9.45
2023-05-14T04:23:14.672Z,9.43
2023-05-14T04:28:14.684Z,9.41
2023-05-14T04:33:14.673Z,9.45
2023-05-14T04:38:14.674Z,9.51
2023-05-14T04:43:14.678Z,9.56
2023-05-14T04:48:14.668Z,9.64
2023-05-14T04:53:14.647Z,9.77
2023-05-14T04:58:14.630Z,9.77
2023-05-14T05:03:14.714Z,9.77
2023-05-14T05:08:14.638Z,9.77
2023-05-14T05:13:14.613Z,9.79
2023-05-14T05:18:14.632Z,9.97
2023-05-14T05:23:14.626Z,9.96
2023-05-14T05:28:14.624Z,10.19
2023-05-14T05:33:14.618Z,10.38
2023-05-14T05:38:14.600Z,10.56
2023-05-14T05:43:14.599Z,10.72
2023-05-14T05:48:14.607Z,10.76
2023-05-14T05:53:14.580Z,11.19
2023-05-14T05:58:14.576Z,11.33
2023-05-14T06:03:14.632Z,11.53
2023-05-14T06:08:14.577Z,11.69
2023-05-14T06:13:14.558Z,11.9
2023-05-14T06:18:14.556Z,12.08
2023-05-14T06:23:14.566Z,12.28
2023-05-14T06:28:14.542Z,12.45
2023-05-14T06:33:14.539Z,12.39
2023-05-14T06:38:14.568Z,12.26
2023-05-14T06:43:14.550Z,12.29
2023-05-14T06:48:14.609Z,12.5
2023-05-14T06:53:14.524Z,12.5
2023-05-14T06:58:14.521Z,12.65
2023-05-14T07:03:14.518Z,12.74
2023-05-14T07:08:14.501Z,13.06
2023-05-14T07:13:14.522Z,13.3
2023-05-14T07:18:14.524Z,13.53
2023-05-14T07:23:14.484Z,13.43
2023-05-14T07:28:14.482Z,13.09
2023-05-14T07:33:14.494Z,12.84
2023-05-14T07:38:14.481Z,12.63
2023-05-14T07:43:14.504Z,12.6
2023-05-14T07:48:14.507Z,12.37
2023-05-14T07:53:14.447Z,12.23
2023-05-14T07:58:14.440Z,12.27
2023-05-14T08:03:14.540Z,12.21
2023-05-14T08:08:14.437Z,12.13
2023-05-14T08:13:14.452Z,12.18
2023-05-14T08:18:14.452Z,12.34
2023-05-14T08:23:14.427Z,12.42
2023-05-14T08:28:14.428Z,12.49
2023-05-14T08:33:14.414Z,12.59
2023-05-14T08:38:14.413Z,12.59
2023-05-14T08:43:14.416Z,12.47
2023-05-14T08:48:14.422Z,12.41
2023-05-14T08:53:14.401Z,12.47
2023-05-14T08:58:14.386Z,12.53
2023-05-14T09:03:14.413Z,12.36
2023-05-14T09:08:14.364Z,12.38
2023-05-14T09:13:14.366Z,12.39
2023-05-14T09:18:14.348Z,12.38
2023-05-14T09:23:14.372Z,12.28
2023-05-14T09:28:14.364Z,12.4
2023-05-14T09:33:14.330Z,12.62
2023-05-14T09:38:14.340Z,13.12
2023-05-14T09:43:14.331Z,13.3
2023-05-14T09:48:14.381Z,13.71
2023-05-14T10:03:14.702Z,14.58
2023-05-14T10:13:14.296Z,14.49
2023-05-14T10:38:14.253Z,13.9
2023-05-14T11:13:14.230Z,17.59
2023-05-14T11:18:14.239Z,17.43
2023-05-14T11:38:14.197Z,17.65
2023-05-14T11:48:14.251Z,17.81
2023-05-14T12:18:23.750Z,17.74
2023-05-14T12:23:14.132Z,17.97
2023-05-14T12:43:14.116Z,17.5
2023-05-14T12:48:14.122Z,17.68
2023-05-14T12:53:14.094Z,17.92
2023-05-14T12:58:14.069Z,18.26
2023-05-14T13:03:14.085Z,18.76
2023-05-14T13:08:14.080Z,19.06
2023-05-14T13:13:14.074Z,19.15
2023-05-14T13:18:14.068Z,19.12
2023-05-14T13:23:14.060Z,18.77
2023-05-14T13:28:14.064Z,19.25
2023-05-14T13:33:14.142Z,19.64
2023-05-14T13:38:14.020Z,19.91
2023-05-14T13:43:14.027Z,19.92
2023-05-14T13:48:14.089Z,19.87
2023-05-14T13:53:14.030Z,20.19
2023-05-14T13:58:14.039Z,20.57
2023-05-14T14:03:14.006Z,20.49
2023-05-14T14:13:13.997Z,20.29
2023-05-14T14:18:13.978Z,19.72
2023-05-14T14:23:13.969Z,18.9
2023-05-14T14:28:14.018Z,17.52
2023-05-14T14:33:13.982Z,14.94
2023-05-14T14:38:13.959Z,13.3
2023-05-14T14:43:13.932Z,12.78
2023-05-14T14:58:13.914Z,12.28
2023-05-14T15:33:13.907Z,11.86
2023-05-14T15:43:13.884Z,11.61
2023-05-14T16:03:13.899Z,12.24
2023-05-14T16:23:13.818Z,11.95
2023-05-14T16:33:13.836Z,11.8
2023-05-14T16:38:14.022Z,11.77
2023-05-14T16:53:13.806Z,11.84
2023-05-14T16:58:13.782Z,12.04
2023-05-14T17:08:13.770Z,12.27
2023-05-14T17:23:13.740Z,12.13
2023-05-14T17:28:13.761Z,11.98
2023-05-14T17:33:13.749Z,11.85
2023-05-14T17:38:13.743Z,11.84
2023-05-14T17:43:13.736Z,11.81
2023-05-14T17:48:13.810Z,11.81
2023-05-14T17:53:13.738Z,11.82
2023-05-14T17:58:13.744Z,11.76
2023-05-14T18:03:13.828Z,11.68
2023-05-14T18:08:13.739Z,11.65
2023-05-14T18:13:13.715Z,11.61
2023-05-14T18:18:13.732Z,11.56
2023-05-14T18:23:13.714Z,11.51
2023-05-14T18:28:13.689Z,11.46
2023-05-14T18:33:13.713Z,11.29
2023-05-14T18:38:13.753Z,11.14
2023-05-14T18:43:13.740Z,10.97
2023-05-14T18:48:13.682Z,10.82
2023-05-14T18:53:13.746Z,10.73
2023-05-14T18:58:13.675Z,10.71
2023-05-14T19:03:13.763Z,10.66
2023-05-14T19:08:13.667Z,10.6
2023-05-14T19:13:13.646Z,10.5
2023-05-14T19:18:13.642Z,10.38
2023-05-14T19:23:13.660Z,10.32
2023-05-14T19:28:13.649Z,10.25
2023-05-14T19:33:13.673Z,10.17
2023-05-14T19:38:13.625Z,10.11
2023-05-14T19:43:13.668Z,10.06
2023-05-14T19:48:13.651Z,9.99
2023-05-14T19:53:13.595Z,9.95
2023-05-14T19:58:13.612Z,9.93
2023-05-14T20:03:13.740Z,9.89
2023-05-14T20:08:13.637Z,9.78
2023-05-14T20:13:13.603Z,9.77
2023-05-14T20:18:13.603Z,9.62
2023-05-14T20:23:13.586Z,9.49
2023-05-14T20:28:13.598Z,9.42
2023-05-14T20:33:13.620Z,9.33
2023-05-14T20:38:13.560Z,9.31
2023-05-14T20:43:13.561Z,9.36
2023-05-14T20:48:13.589Z,9.42
2023-05-14T20:53:13.559Z,9.52
2023-05-14T20:58:13.533Z,9.57
2023-05-14T21:03:13.591Z,9.62
2023-05-14T21:08:13.559Z,9.67
2023-05-14T21:13:13.537Z,9.75
2023-05-14T21:18:13.536Z,9.77
2023-05-14T21:23:13.515Z,9.77
2023-05-14T21:28:13.536Z,9.77
2023-05-14T21:33:13.525Z,9.77
2023-05-14T21:38:14.831Z,9.77
2023-05-14T21:43:13.520Z,9.77
2023-05-14T21:48:13.574Z,9.77
2023-05-14T21:53:13.503Z,9.77
2023-05-14T21:58:13.496Z,9.77
2023-05-14T22:03:13.531Z,9.77
2023-05-14T22:08:13.492Z,9.77
2023-05-14T22:13:13.467Z,9.77
2023-05-14T22:18:13.601Z,9.77
2023-05-14T22:23:13.461Z,9.77
2023-05-14T22:28:13.505Z,9.77
2023-05-14T22:33:13.478Z,9.77
2023-05-14T22:38:13.447Z,9.77
2023-05-14T22:43:13.448Z,9.77
2023-05-14T22:48:13.438Z,9.77
2023-05-14T22:53:13.468Z,9.78
2023-05-14T22:58:13.429Z,9.78
2023-05-14T23:03:13.435Z,9.77
2023-05-14T23:08:13.419Z,9.77
2023-05-14T23:13:13.421Z,9.77
2023-05-14T23:18:13.438Z,9.77
2023-05-14T23:23:13.441Z,9.77
2023-05-14T23:28:13.391Z,9.77
2023-05-14T23:33:13.381Z,9.77
2023-05-14T23:38:13.383Z,9.77
2023-05-14T23:43:13.429Z,9.77
2023-05-14T23:48:13.393Z,9.77
2023-05-14T23:53:13.359Z,9.78
2023-05-14T23:58:13.379Z,9.77
